createdAt,value
2022-08-19T00:02:21.667Z,100.00
2022-08-19T00:04:53.443Z,100.00
2022-08-19T00:07:21.899Z,100.00
2022-08-19T00:09:49.631Z,100.00
2022-08-19T00:12:17.549Z,100.00
2022-08-19T00:14:45.591Z,100.00
2022-08-19T00:17:13.617Z,100.00
2022-08-19T00:19:42.777Z,100.00
2022-08-19T00:22:10.815Z,100.00
2022-08-19T00:24:39.378Z,100.00
2022-08-19T00:27:26.098Z,100.00
2022-08-19T00:29:54.726Z,100.00
2022-08-19T00:32:22.935Z,100.00
2022-08-19T00:34:54.365Z,100.00
2022-08-19T00:37:23.857Z,100.00
2022-08-19T00:39:51.902Z,100.00
2022-08-19T00:42:20.973Z,100.00
2022-08-19T00:44:48.873Z,100.00
2022-08-19T00:47:16.648Z,100.00
2022-08-19T00:49:51.613Z,100.00
2022-08-19T00:52:29.797Z,100.00
2022-08-19T00:54:59.123Z,100.00
2022-08-19T00:57:32.010Z,100.00
2022-08-19T01:00:03.302Z,100.00
2022-08-19T01:02:33.781Z,100.00
2022-08-19T01:05:03.483Z,100.00
2022-08-19T01:07:35.984Z,100.00
2022-08-19T01:10:08.918Z,100.00
2022-08-19T01:12:37.227Z,100.00
2022-08-19T01:15:05.837Z,100.00
2022-08-19T01:17:34.030Z,100.00
2022-08-19T01:20:01.977Z,100.00
2022-08-19T01:22:34.170Z,100.00
2022-08-19T01:25:02.578Z,100.00
2022-08-19T01:27:42.912Z,100.00
2022-08-19T01:30:14.932Z,100.00
2022-08-19T01:32:44.410Z,100.00
2022-08-19T01:35:13.833Z,100.00
2022-08-19T01:37:48.161Z,100.00
2022-08-19T01:40:16.847Z,100.00
2022-08-19T01:42:44.543Z,100.00
2022-08-19T01:45:12.313Z,100.00
2022-08-19T01:47:40.103Z,100.00
2022-08-19T01:50:10.951Z,100.00
2022-08-19T01:52:38.826Z,100.00
2022-08-19T01:55:10.877Z,100.00
2022-08-19T01:57:41.555Z,100.00
2022-08-19T02:00:13.228Z,100.00
2022-08-19T02:02:41.181Z,100.00
2022-08-19T02:05:13.499Z,100.00
2022-08-19T02:07:41.363Z,100.00
2022-08-19T02:10:13.848Z,100.00
2022-08-19T02:12:44.582Z,100.00
2022-08-19T02:15:13.050Z,100.00
2022-08-19T02:17:41.893Z,100.00
2022-08-19T02:20:11.195Z,100.00
2022-08-19T02:22:41.221Z,100.00
2022-08-19T02:25:10.822Z,100.00
2022-08-19T02:27:38.722Z,100.00
2022-08-19T02:30:09.103Z,100.00
2022-08-19T02:32:44.275Z,100.00
2022-08-19T02:35:14.315Z,100.00
2022-08-19T02:37:59.620Z,100.00
2022-08-19T02:40:29.075Z,100.00
2022-08-19T02:42:57.089Z,100.00
2022-08-19T02:45:24.886Z,100.00
2022-08-19T02:47:52.792Z,100.00
2022-08-19T02:50:20.723Z,100.00
2022-08-19T02:52:48.482Z,100.00
2022-08-19T02:55:16.274Z,100.00
2022-08-19T02:57:45.326Z,100.00
2022-08-19T03:00:13.894Z,100.00
2022-08-19T03:02:42.109Z,100.00
2022-08-19T03:05:11.353Z,100.00
2022-08-19T03:07:39.571Z,100.00
2022-08-19T03:10:08.909Z,100.00
2022-08-19T03:12:38.910Z,100.00
2022-08-19T03:15:10.594Z,100.00
2022-08-19T03:17:38.368Z,100.00
2022-08-19T03:20:07.064Z,100.00
2022-08-19T03:22:34.738Z,100.00
2022-08-19T03:25:02.446Z,100.00
2022-08-19T03:27:34.225Z,100.00
2022-08-19T03:30:02.711Z,100.00
2022-08-19T03:32:33.015Z,100.00
2022-08-19T03:35:01.101Z,100.00
2022-08-19T03:37:29.419Z,100.00
2022-08-19T03:39:57.094Z,100.00
2022-08-19T03:42:32.307Z,100.00
2022-08-19T03:45:08.519Z,100.00
2022-08-19T03:47:38.716Z,100.00
2022-08-19T03:50:07.329Z,100.00
2022-08-19T03:52:34.965Z,100.00
2022-08-19T03:55:02.663Z,99.14
2022-08-19T03:57:32.105Z,99.23
2022-08-19T04:00:13.256Z,100.00
2022-08-19T04:02:58.017Z,100.00
2022-08-19T04:05:29.406Z,100.00
2022-08-19T04:07:59.995Z,100.00
2022-08-19T04:10:28.655Z,100.00
2022-08-19T04:12:56.339Z,100.00
2022-08-19T04:15:24.124Z,100.00
2022-08-19T04:17:53.108Z,100.00
2022-08-19T04:20:20.733Z,100.00
2022-08-19T04:22:48.435Z,100.00
2022-08-19T04:25:16.066Z,100.00
2022-08-19T04:27:47.408Z,100.00
2022-08-19T04:30:16.310Z,100.00
2022-08-19T04:32:44.600Z,99.01
2022-08-19T04:35:16.986Z,98.54
2022-08-19T04:37:46.330Z,99.74
2022-08-19T04:40:31.798Z,100.00
2022-08-19T04:42:59.409Z,99.08
2022-08-19T04:45:27.123Z,99.59
2022-08-19T04:48:19.798Z,99.01
2022-08-19T04:50:47.184Z,100.00
2022-08-19T04:53:14.830Z,100.00
2022-08-19T04:55:43.839Z,100.00
2022-08-19T04:58:11.530Z,100.00
2022-08-19T05:00:40.371Z,99.50
2022-08-19T05:03:08.090Z,98.91
2022-08-19T05:05:44.771Z,99.34
2022-08-19T05:08:19.401Z,99.01
2022-08-19T05:10:59.254Z,98.53
2022-08-19T05:13:27.607Z,97.92
2022-08-19T05:15:56.938Z,98.10
2022-08-19T05:18:42.760Z,98.29
2022-08-19T05:21:29.052Z,97.29
2022-08-19T05:23:58.266Z,96.65
2022-08-19T05:26:26.882Z,96.67
2022-08-19T05:28:54.654Z,96.69
2022-08-19T05:31:23.245Z,97.19
2022-08-19T05:33:51.305Z,96.57
2022-08-19T05:36:20.594Z,95.95
2022-08-19T05:38:50.975Z,96.35
2022-08-19T05:41:20.510Z,96.41
2022-08-19T05:43:48.403Z,96.20
2022-08-19T05:46:19.965Z,95.94
2022-08-19T05:48:57.500Z,94.82
2022-08-19T05:51:29.006Z,95.01
2022-08-19T05:53:56.992Z,93.85
2022-08-19T05:56:26.206Z,94.03
2022-08-19T05:58:55.041Z,93.34
2022-08-19T06:01:23.142Z,94.54
2022-08-19T06:03:50.738Z,94.73
2022-08-19T06:06:19.094Z,95.27
2022-08-19T06:08:51.591Z,94.75
2022-08-19T06:11:22.933Z,94.63
2022-08-19T06:13:59.607Z,94.55
2022-08-19T06:16:29.145Z,93.74
2022-08-19T06:18:58.861Z,93.29
2022-08-19T06:21:29.590Z,93.38
2022-08-19T06:23:58.034Z,92.84
2022-08-19T06:26:26.151Z,93.00
2022-08-19T06:28:55.483Z,92.96
2022-08-19T06:31:26.669Z,91.95
2022-08-19T06:33:54.549Z,92.09
2022-08-19T06:36:28.432Z,91.87
2022-08-19T06:38:56.580Z,92.21
2022-08-19T06:41:24.620Z,91.94
2022-08-19T06:43:54.179Z,91.36
2022-08-19T06:46:26.195Z,91.33
2022-08-19T06:48:55.321Z,90.69
2022-08-19T06:51:24.787Z,89.27
2022-08-19T06:53:54.257Z,88.04
2022-08-19T06:56:34.510Z,86.07
2022-08-19T06:59:03.246Z,84.81
2022-08-19T07:01:32.530Z,83.86
2022-08-19T07:04:01.382Z,83.05
2022-08-19T07:06:44.842Z,80.91
2022-08-19T07:09:14.995Z,79.54
2022-08-19T07:11:48.195Z,78.64
2022-08-19T07:14:19.489Z,76.51
2022-08-19T07:16:50.425Z,74.59
2022-08-19T07:19:20.190Z,76.21
2022-08-19T07:21:49.560Z,76.65
2022-08-19T07:24:18.757Z,77.04
2022-08-19T07:26:46.712Z,76.13
2022-08-19T07:29:23.763Z,76.63
2022-08-19T07:31:57.175Z,76.72
2022-08-19T07:34:26.193Z,76.94
2022-08-19T07:36:55.444Z,77.18
2022-08-19T07:39:26.733Z,76.15
2022-08-19T07:41:54.672Z,76.64
2022-08-19T07:44:23.775Z,77.07
2022-08-19T07:46:57.934Z,76.31
2022-08-19T07:49:26.011Z,76.29
2022-08-19T07:51:56.675Z,74.54
2022-08-19T07:54:26.195Z,73.74
2022-08-19T07:56:53.849Z,70.66
2022-08-19T07:59:23.045Z,67.47
2022-08-19T08:01:51.805Z,65.07
2022-08-19T08:04:38.707Z,64.04
2022-08-19T08:07:25.799Z,64.37
2022-08-19T08:09:59.952Z,61.32
2022-08-19T08:12:35.586Z,59.56
2022-08-19T08:15:08.842Z,59.66
2022-08-19T08:17:49.455Z,57.42
2022-08-19T08:20:21.337Z,59.17
2022-08-19T08:23:07.266Z,58.50
2022-08-19T08:25:36.270Z,55.00
2022-08-19T08:28:04.958Z,55.42
2022-08-19T08:30:33.963Z,54.77
2022-08-19T08:33:02.506Z,53.76
2022-08-19T08:35:31.856Z,53.92
2022-08-19T08:38:00.064Z,52.54
2022-08-19T08:40:31.509Z,52.63
2022-08-19T08:43:11.767Z,53.58
2022-08-19T08:45:47.606Z,53.50
2022-08-19T08:48:26.751Z,52.91
2022-08-19T08:50:58.553Z,52.38
2022-08-19T08:53:29.581Z,52.93
2022-08-19T08:55:57.651Z,55.32
2022-08-19T08:58:30.175Z,54.71
2022-08-19T09:00:58.928Z,53.44
2022-08-19T09:03:31.578Z,52.27
2022-08-19T09:06:05.074Z,51.86
2022-08-19T09:08:49.920Z,51.20
2022-08-19T09:11:42.644Z,50.21
2022-08-19T09:14:49.352Z,50.74
2022-08-19T09:17:15.819Z,49.61
2022-08-19T09:19:53.493Z,50.13
2022-08-19T09:22:25.444Z,50.19
2022-08-19T09:24:54.549Z,49.62
2022-08-19T09:27:35.618Z,48.90
2022-08-19T09:30:14.374Z,50.02
2022-08-19T09:32:43.591Z,48.21
2022-08-19T09:35:12.141Z,46.97
2022-08-19T09:37:41.239Z,47.92
2022-08-19T09:40:12.677Z,47.76
2022-08-19T09:42:49.677Z,47.41
2022-08-19T09:45:22.754Z,47.93
2022-08-19T09:47:51.973Z,47.25
2022-08-19T09:50:22.436Z,46.49
2022-08-19T09:52:57.027Z,46.42
2022-08-19T09:55:31.223Z,46.93
2022-08-19T09:57:59.078Z,46.48
2022-08-19T10:00:27.669Z,45.03
2022-08-19T10:02:55.465Z,44.66
2022-08-19T10:05:42.295Z,44.74
2022-08-19T10:08:13.061Z,46.36
2022-08-19T10:10:44.066Z,46.14
2022-08-19T10:13:14.417Z,44.83
2022-08-19T10:15:47.780Z,44.85
2022-08-19T10:18:17.664Z,46.76
2022-08-19T10:20:46.349Z,47.90
2022-08-19T10:23:21.860Z,48.04
2022-08-19T10:25:50.736Z,43.59
2022-08-19T10:28:19.381Z,43.55
2022-08-19T10:30:47.938Z,43.62
2022-08-19T10:33:16.074Z,44.54
2022-08-19T10:36:05.526Z,45.23
2022-08-19T10:38:34.822Z,45.77
2022-08-19T10:41:09.297Z,46.45
2022-08-19T10:43:39.095Z,46.64
2022-08-19T10:46:09.460Z,47.05
2022-08-19T10:48:41.758Z,44.27
2022-08-19T10:51:28.248Z,41.33
2022-08-19T10:53:58.999Z,41.07
2022-08-19T10:56:45.678Z,41.58
2022-08-19T10:59:15.033Z,42.07
2022-08-19T11:01:44.313Z,42.48
2022-08-19T11:04:14.390Z,41.58
2022-08-19T11:06:44.330Z,40.68
2022-08-19T11:09:14.715Z,39.27
2022-08-19T11:11:42.775Z,39.14
2022-08-19T11:14:11.927Z,39.58
2022-08-19T11:16:40.355Z,40.06
2022-08-19T11:19:09.624Z,39.59
2022-08-19T11:21:39.635Z,39.50
2022-08-19T11:24:10.370Z,40.97
2022-08-19T11:26:40.951Z,41.49
2022-08-19T11:29:12.311Z,41.46
2022-08-19T11:31:42.299Z,40.27
2022-08-19T11:34:12.885Z,39.30
2022-08-19T11:36:42.289Z,39.04
2022-08-19T11:39:11.714Z,38.61
2022-08-19T11:41:41.350Z,38.08
2022-08-19T11:44:09.539Z,37.67
2022-08-19T11:46:38.516Z,36.51
2022-08-19T11:49:13.777Z,35.60
2022-08-19T11:51:42.926Z,34.97
2022-08-19T11:54:10.850Z,36.43
2022-08-19T11:56:40.926Z,35.96
2022-08-19T11:59:14.113Z,36.83
2022-08-19T12:01:43.598Z,34.99
2022-08-19T12:04:12.455Z,35.11
2022-08-19T12:06:42.049Z,34.80
2022-08-19T12:09:11.152Z,34.20
2022-08-19T12:11:41.407Z,33.96
2022-08-19T12:14:14.518Z,34.16
2022-08-19T12:16:51.031Z,34.37
2022-08-19T12:19:21.161Z,33.67
2022-08-19T12:21:51.140Z,33.26
2022-08-19T12:24:23.845Z,33.08
2022-08-19T12:26:54.171Z,33.50
2022-08-19T12:29:30.513Z,34.39
2022-08-19T12:32:02.031Z,34.73
2022-08-19T12:34:31.784Z,33.81
2022-08-19T12:36:59.723Z,33.11
2022-08-19T12:39:27.571Z,33.17
2022-08-19T12:41:56.554Z,33.51
2022-08-19T12:44:28.873Z,32.94
2022-08-19T12:46:57.682Z,33.03
2022-08-19T12:49:52.336Z,33.77
2022-08-19T12:52:16.114Z,33.48
2022-08-19T12:54:45.034Z,34.02
2022-08-19T12:57:14.526Z,33.62
2022-08-19T12:59:42.322Z,34.15
2022-08-19T13:02:10.138Z,33.33
2022-08-19T13:04:41.670Z,33.62
2022-08-19T13:07:10.000Z,33.60
2022-08-19T13:09:37.789Z,33.85
2022-08-19T13:12:08.583Z,33.93
2022-08-19T13:14:39.360Z,33.81
2022-08-19T13:17:06.967Z,33.93
2022-08-19T13:19:34.905Z,33.77
2022-08-19T13:22:02.606Z,33.38
2022-08-19T13:24:34.009Z,33.11
2022-08-19T13:27:01.768Z,33.16
2022-08-19T13:29:47.467Z,33.24
2022-08-19T13:32:33.834Z,32.30
2022-08-19T13:35:03.402Z,32.22
2022-08-19T13:37:43.303Z,32.22
2022-08-19T13:40:13.740Z,33.05
2022-08-19T13:42:42.302Z,33.83
2022-08-19T13:45:11.474Z,33.99
2022-08-19T13:47:45.349Z,34.50
2022-08-19T13:50:14.481Z,34.68
2022-08-19T13:52:42.526Z,35.24
2022-08-19T13:55:12.809Z,35.08
2022-08-19T13:57:40.889Z,34.13
2022-08-19T14:00:11.906Z,34.70
2022-08-19T14:02:41.945Z,35.07
2022-08-19T14:05:13.051Z,35.28
2022-08-19T14:07:41.521Z,35.22
2022-08-19T14:10:12.530Z,35.44
2022-08-19T14:12:41.197Z,35.84
2022-08-19T14:15:11.971Z,36.19
2022-08-19T14:17:42.484Z,35.86
2022-08-19T14:20:16.892Z,36.22
2022-08-19T14:22:47.560Z,36.09
2022-08-19T14:25:18.230Z,35.80
2022-08-19T14:27:46.881Z,35.86
2022-08-19T14:30:17.605Z,35.80
2022-08-19T14:32:46.715Z,35.63
2022-08-19T14:35:16.118Z,35.65
2022-08-19T14:37:46.206Z,35.90
2022-08-19T14:40:15.592Z,36.12
2022-08-19T14:42:44.023Z,35.73
2022-08-19T14:45:13.682Z,35.84
2022-08-19T14:47:41.625Z,35.56
2022-08-19T14:50:18.078Z,35.33
2022-08-19T14:52:46.335Z,36.21
2022-08-19T14:55:14.081Z,35.85
2022-08-19T14:57:43.438Z,35.78
2022-08-19T15:00:13.924Z,36.16
2022-08-19T15:02:41.725Z,36.20
2022-08-19T15:05:11.025Z,36.11
2022-08-19T15:07:39.199Z,36.34
2022-08-19T15:10:09.310Z,36.19
2022-08-19T15:12:38.347Z,36.36
2022-08-19T15:15:07.096Z,35.83
2022-08-19T15:17:45.864Z,35.86
2022-08-19T15:20:19.029Z,35.49
2022-08-19T15:22:47.351Z,35.34
2022-08-19T15:25:19.388Z,35.42
2022-08-19T15:27:47.361Z,35.19
2022-08-19T15:30:21.752Z,34.95
2022-08-19T15:32:49.837Z,34.46
2022-08-19T15:35:20.542Z,34.58
2022-08-19T15:37:50.906Z,33.81
2022-08-19T15:40:19.739Z,33.91
2022-08-19T15:42:49.788Z,34.45
2022-08-19T15:45:18.992Z,34.29
2022-08-19T15:47:47.595Z,34.26
2022-08-19T15:50:18.508Z,34.46
2022-08-19T15:52:50.513Z,33.94
2022-08-19T15:55:32.295Z,34.41
2022-08-19T15:58:24.135Z,34.52
2022-08-19T16:01:14.776Z,34.62
2022-08-19T16:04:00.110Z,35.09
2022-08-19T16:06:27.877Z,35.37
2022-08-19T16:08:58.824Z,35.54
2022-08-19T16:11:29.605Z,35.28
2022-08-19T16:13:59.145Z,35.33
2022-08-19T16:16:31.023Z,35.38
2022-08-19T16:19:10.275Z,35.13
2022-08-19T16:21:41.427Z,35.01
2022-08-19T16:24:13.093Z,34.75
2022-08-19T16:26:41.950Z,34.67
2022-08-19T16:29:12.098Z,34.65
2022-08-19T16:31:41.991Z,35.09
2022-08-19T16:34:09.795Z,35.21
2022-08-19T16:36:41.981Z,34.75
2022-08-19T16:39:13.134Z,35.53
2022-08-19T16:41:42.334Z,35.49
2022-08-19T16:44:12.487Z,35.68
2022-08-19T16:46:41.581Z,35.96
2022-08-19T16:49:10.569Z,36.45
2022-08-19T16:51:38.608Z,36.36
2022-08-19T16:54:07.281Z,37.10
2022-08-19T16:56:36.907Z,37.31
2022-08-19T16:59:04.990Z,38.01
2022-08-19T17:01:33.185Z,37.91
2022-08-19T17:04:00.838Z,38.06
2022-08-19T17:06:31.002Z,37.85
2022-08-19T17:09:00.878Z,38.25
2022-08-19T17:11:30.147Z,38.58
2022-08-19T17:13:59.453Z,38.73
2022-08-19T17:16:29.090Z,38.77
2022-08-19T17:18:59.066Z,38.85
2022-08-19T17:21:29.565Z,38.96
2022-08-19T17:23:58.102Z,38.80
2022-08-19T17:26:26.997Z,39.44
2022-08-19T17:28:56.957Z,39.71
2022-08-19T17:31:28.949Z,40.02
2022-08-19T17:33:58.201Z,39.96
2022-08-19T17:36:28.214Z,39.75
2022-08-19T17:38:57.020Z,40.03
2022-08-19T17:41:25.863Z,39.52
2022-08-19T17:43:54.393Z,39.53
2022-08-19T17:46:22.143Z,39.93
2022-08-19T17:48:55.175Z,40.00
2022-08-19T17:51:25.094Z,39.89
2022-08-19T17:53:54.092Z,40.05
2022-08-19T17:56:23.548Z,40.43
2022-08-19T17:58:59.628Z,40.43
2022-08-19T18:01:44.157Z,40.42
2022-08-19T18:04:19.904Z,40.60
2022-08-19T18:06:53.036Z,40.89
2022-08-19T18:09:24.450Z,40.84
2022-08-19T18:11:53.842Z,40.81
2022-08-19T18:14:28.116Z,41.19
2022-08-19T18:17:00.315Z,41.91
2022-08-19T18:19:40.812Z,42.18
2022-08-19T18:22:11.534Z,42.74
2022-08-19T18:24:39.876Z,43.11
2022-08-19T18:27:07.991Z,43.53
2022-08-19T18:29:37.478Z,44.15
2022-08-19T18:32:06.002Z,44.95
2022-08-19T18:34:37.295Z,45.57
2022-08-19T18:37:05.533Z,46.08
2022-08-19T18:39:50.864Z,44.26
2022-08-19T18:42:37.255Z,43.35
2022-08-19T18:45:22.860Z,41.84
2022-08-19T18:48:08.188Z,41.13
2022-08-19T18:50:56.631Z,41.20
2022-08-19T18:53:25.227Z,40.95
2022-08-19T18:55:55.415Z,40.70
2022-08-19T18:58:26.463Z,41.43
2022-08-19T19:00:57.199Z,41.00
2022-08-19T19:03:26.100Z,41.15
2022-08-19T19:05:55.256Z,41.58
2022-08-19T19:08:26.904Z,41.20
2022-08-19T19:10:55.876Z,41.43
2022-08-19T19:13:23.538Z,41.53
2022-08-19T19:15:51.789Z,41.60
2022-08-19T19:18:19.713Z,41.48
2022-08-19T19:20:47.377Z,42.17
2022-08-19T19:23:16.385Z,41.89
2022-08-19T19:25:50.464Z,42.62
2022-08-19T19:28:23.884Z,42.69
2022-08-19T19:30:52.457Z,42.76
2022-08-19T19:33:20.667Z,42.72
2022-08-19T19:35:48.466Z,43.20
2022-08-19T19:38:17.419Z,43.80
2022-08-19T19:40:45.557Z,43.58
2022-08-19T19:43:13.395Z,43.96
2022-08-19T19:45:41.162Z,44.43
2022-08-19T19:48:13.650Z,44.74
2022-08-19T19:50:41.785Z,44.96
2022-08-19T19:53:09.599Z,45.16
2022-08-19T19:55:41.123Z,45.35
2022-08-19T19:58:09.562Z,45.67
2022-08-19T20:00:37.431Z,45.73
2022-08-19T20:03:06.342Z,46.08
2022-08-19T20:05:34.093Z,46.12
2022-08-19T20:08:19.592Z,46.20
2022-08-19T20:10:48.834Z,46.89
2022-08-19T20:13:16.475Z,46.97
2022-08-19T20:15:44.431Z,47.69
2022-08-19T20:18:14.220Z,47.69
2022-08-19T20:20:42.168Z,48.25
2022-08-19T20:23:10.156Z,48.24
2022-08-19T20:25:39.784Z,48.85
2022-08-19T20:28:09.142Z,49.42
2022-08-19T20:30:39.043Z,49.77
2022-08-19T20:33:14.570Z,50.06
2022-08-19T20:35:43.986Z,50.49
2022-08-19T20:38:11.915Z,50.56
2022-08-19T20:40:41.117Z,51.06
2022-08-19T20:43:12.956Z,51.75
2022-08-19T20:45:41.143Z,51.55
2022-08-19T20:48:12.102Z,52.22
2022-08-19T20:50:40.166Z,52.50
2022-08-19T20:53:13.035Z,52.78
2022-08-19T20:55:41.147Z,52.81
2022-08-19T20:58:12.639Z,52.99
2022-08-19T21:00:40.661Z,53.16
2022-08-19T21:03:08.383Z,53.51
2022-08-19T21:05:36.062Z,53.86
2022-08-19T21:08:04.529Z,54.35
2022-08-19T21:10:32.331Z,54.70
2022-08-19T21:12:59.986Z,55.32
2022-08-19T21:15:29.038Z,56.08
2022-08-19T21:17:56.990Z,56.54
2022-08-19T21:20:24.890Z,57.27
2022-08-19T21:22:52.563Z,57.83
2022-08-19T21:25:20.186Z,58.70
2022-08-19T21:27:47.823Z,59.80
2022-08-19T21:30:15.635Z,61.31
2022-08-19T21:32:45.859Z,61.67
2022-08-19T21:35:15.861Z,62.48
2022-08-19T21:37:43.766Z,63.89
2022-08-19T21:40:12.390Z,64.59
2022-08-19T21:42:40.297Z,65.44
2022-08-19T21:45:09.229Z,66.58
2022-08-19T21:47:37.031Z,66.65
2022-08-19T21:50:07.454Z,67.15
2022-08-19T21:52:35.125Z,68.03
2022-08-19T21:55:02.867Z,68.55
2022-08-19T21:57:30.758Z,69.06
2022-08-19T21:59:58.471Z,69.42
2022-08-19T22:02:27.334Z,69.91
2022-08-19T22:04:55.650Z,70.74
2022-08-19T22:07:25.067Z,71.28
2022-08-19T22:09:52.755Z,71.77
2022-08-19T22:12:24.205Z,72.83
2022-08-19T22:14:53.023Z,73.57
2022-08-19T22:17:22.325Z,74.22
2022-08-19T22:19:50.885Z,74.97
2022-08-19T22:22:21.399Z,76.12
2022-08-19T22:24:50.595Z,76.79
2022-08-19T22:27:18.361Z,78.01
2022-08-19T22:29:46.043Z,78.97
2022-08-19T22:32:28.135Z,79.22
2022-08-19T22:34:58.604Z,79.73
2022-08-19T22:37:26.986Z,80.76
2022-08-19T22:39:56.425Z,80.70
2022-08-19T22:42:25.245Z,80.83
2022-08-19T22:44:58.813Z,81.41
2022-08-19T22:47:27.167Z,80.78
2022-08-19T22:49:58.095Z,82.26
2022-08-19T22:52:24.819Z,82.19
2022-08-19T22:54:54.738Z,82.61
2022-08-19T22:57:24.378Z,83.40
2022-08-19T22:59:53.606Z,84.17
2022-08-19T23:02:26.727Z,84.26
2022-08-19T23:04:54.661Z,84.59
2022-08-19T23:07:23.995Z,84.77
2022-08-19T23:09:51.761Z,84.57
2022-08-19T23:12:30.715Z,84.79
2022-08-19T23:15:03.104Z,85.17
2022-08-19T23:17:30.986Z,85.26
2022-08-19T23:20:00.028Z,85.10
2022-08-19T23:22:30.327Z,86.09
2022-08-19T23:25:02.915Z,87.29
2022-08-19T23:27:49.242Z,87.66
2022-08-19T23:30:29.097Z,88.74
2022-08-19T23:32:58.766Z,89.14
2022-08-19T23:35:27.380Z,89.33
2022-08-19T23:37:55.225Z,89.31
2022-08-19T23:40:23.082Z,89.19
2022-08-19T23:42:52.503Z,89.06
2022-08-19T23:45:23.679Z,88.93
2022-08-19T23:47:53.388Z,88.92
2022-08-19T23:50:21.608Z,88.93
2022-08-19T23:52:52.560Z,89.28
2022-08-19T23:55:22.235Z,89.25
2022-08-19T23:57:50.167Z,88.74
